Time;durP1;ratioP1;P1;durP2;ratioP2;P2;SDS_P1;SDS_P2;PMS_P1;PMS_P2;Temp;Humidity;BMP_temperature;BMP_pressure;BME280_temperature;BME280_humidity;BME280_pressure;Samples;Min_cycle;Max_cycle;Signal;HPM_P1;HPM_P2
2022/12/23 00:00:55;;;;;;;30.95;5.05;;;10.30;99.90;;;;;;5031122;28;20120;-49
2022/12/23 00:03:22;;;;;;;11.65;2.67;;;10.30;99.90;;;;;;5031313;28;20512;-48
2022/12/23 00:05:47;;;;;;;9.75;2.00;;;10.30;99.90;;;;;;5030839;28;20472;-43
2022/12/23 00:08:13;;;;;;;8.90;2.30;;;10.30;99.90;;;;;;5028302;28;20030;-53
2022/12/23 00:10:39;;;;;;;8.65;1.80;;;10.30;99.90;;;;;;5028941;28;20033;-40
2022/12/23 00:15:50;;;;;;;6.85;1.80;;;10.30;99.90;;;;;;5029564;28;20040;-44
2022/12/23 00:18:15;;;;;;;5.75;1.80;;;10.30;99.90;;;;;;5029683;28;20385;-38
2022/12/23 00:20:41;;;;;;;8.65;2.15;;;10.30;99.90;;;;;;5029852;28;20648;-39
2022/12/23 00:23:07;;;;;;;8.63;2.13;;;10.30;99.90;;;;;;5030188;28;20048;-42
2022/12/23 00:25:39;;;;;;;8.77;2.28;;;10.30;99.90;;;;;;5029531;28;20025;-43
2022/12/23 00:28:14;;;;;;;7.57;1.77;;;10.30;99.90;;;;;;5023219;28;20088;-39
2022/12/23 00:30:51;;;;;;;15.10;2.53;;;10.30;99.90;;;;;;5033088;28;20075;-44
2022/12/23 00:33:23;;;;;;;10.93;2.28;;;10.20;99.90;;;;;;5022115;28;20025;-43
2022/12/23 00:35:49;;;;;;;9.73;2.70;;;10.20;99.90;;;;;;5021567;28;20113;-45
2022/12/23 00:38:15;;;;;;;6.07;1.92;;;10.20;99.90;;;;;;5027893;28;20440;-47
2022/12/23 00:43:25;;;;;;;11.38;2.92;;;10.20;99.90;;;;;;5029905;28;20039;-43
2022/12/23 00:45:51;;;;;;;8.23;2.92;;;10.20;99.90;;;;;;5018620;28;20041;-40
2022/12/23 00:51:01;;;;;;;6.00;1.95;;;10.10;99.90;;;;;;5026082;28;20079;-49
2022/12/23 00:53:26;;;;;;;8.05;2.42;;;10.20;99.90;;;;;;5030660;28;20037;-47
2022/12/23 00:55:52;;;;;;;4.80;1.58;;;10.20;99.90;;;;;;5030712;28;20028;-47
2022/12/23 00:58:19;;;;;;;8.80;1.90;;;10.10;99.90;;;;;;5030760;28;20032;-45
2022/12/23 01:06:16;;;;;;;4.50;1.70;;;10.10;99.90;;;;;;5029082;28;20100;-40
2022/12/23 01:08:42;;;;;;;6.00;2.00;;;10.10;99.90;;;;;;5032021;28;20047;-38
2022/12/23 01:11:10;;;;;;;6.78;1.80;;;10.10;99.90;;;;;;5030093;28;20062;-40
2022/12/23 01:13:37;;;;;;;3.85;1.40;;;10.00;99.90;;;;;;5025048;28;20029;-42
2022/12/23 01:16:08;;;;;;;5.25;2.15;;;10.10;99.90;;;;;;5026922;28;20026;-39
2022/12/23 01:18:34;;;;;;;2.20;1.15;;;10.10;99.90;;;;;;5025966;28;20022;-44
2022/12/23 01:21:05;;;;;;;3.53;1.35;;;10.00;99.90;;;;;;5029811;28;20045;-40
2022/12/23 01:23:32;;;;;;;4.47;1.55;;;10.00;99.90;;;;;;5025408;28;20045;-39
2022/12/23 01:26:04;;;;;;;2.67;1.50;;;10.00;99.90;;;;;;5027228;28;20136;-40
2022/12/23 01:28:31;;;;;;;6.53;1.40;;;10.00;99.90;;;;;;5025850;28;20035;-41
2022/12/23 01:30:58;;;;;;;3.58;1.58;;;10.10;99.90;;;;;;5025011;28;20022;-38
2022/12/23 01:33:24;;;;;;;4.95;1.40;;;10.00;99.90;;;;;;5026682;28;20128;-37
2022/12/23 01:35:50;;;;;;;2.80;1.40;;;10.00;99.90;;;;;;5028665;28;20124;-43
2022/12/23 01:38:16;;;;;;;5.53;1.27;;;10.00;99.90;;;;;;5031440;28;20045;-41
2022/12/23 01:40:43;;;;;;;3.08;1.27;;;10.00;99.90;;;;;;5024064;28;20358;-41
2022/12/23 01:43:17;;;;;;;3.05;1.35;;;10.00;99.90;;;;;;5033246;28;20029;-39
2022/12/23 01:45:43;;;;;;;2.13;1.20;;;10.00;99.90;;;;;;5032030;28;20391;-40
2022/12/23 01:48:23;;;;;;;3.05;1.30;;;10.00;99.90;;;;;;5032058;28;20033;-42
2022/12/23 01:51:03;;;;;;;3.58;1.30;;;9.90;99.90;;;;;;5033254;28;20030;-38
2022/12/23 01:53:33;;;;;;;5.13;1.40;;;9.90;99.90;;;;;;5029499;28;20021;-40
2022/12/23 01:55:58;;;;;;;;;;;10.00;99.90;;;;;;5031375;28;20361;-46
2022/12/23 01:58:27;;;;;;;4.20;1.50;;;9.90;99.90;;;;;;5017590;28;19964;-41
2022/12/23 02:03:41;;;;;;;1.88;1.15;;;9.90;99.90;;;;;;5017361;28;20057;-42
2022/12/23 02:09:18;;;;;;;2.08;1.25;;;9.90;99.90;;;;;;5015185;28;20060;-42
2022/12/23 02:12:08;;;;;;;2.55;1.40;;;9.90;99.90;;;;;;5015184;28;20049;-39
2022/12/23 02:17:36;;;;;;;2.88;1.17;;;9.90;99.90;;;;;;5015286;28;20064;-46
2022/12/23 02:20:22;;;;;;;2.50;1.30;;;9.90;99.90;;;;;;5018265;28;20480;-39
2022/12/23 02:23:10;;;;;;;3.63;1.17;;;9.90;99.90;;;;;;5015342;28;20057;-41
2022/12/23 02:26:04;;;;;;;1.75;1.10;;;9.90;99.90;;;;;;5017181;28;20022;-44
2022/12/23 02:29:14;;;;;;;1.40;1.20;;;9.90;99.90;;;;;;5020090;28;20488;-43
2022/12/23 02:31:48;;;;;;;4.82;1.48;;;9.80;99.90;;;;;;5019735;28;20029;-42
2022/12/23 02:34:34;;;;;;;2.22;1.30;;;9.80;99.90;;;;;;5016753;28;20023;-40
2022/12/23 02:37:32;;;;;;;1.65;1.08;;;9.80;99.90;;;;;;5019936;28;20026;-41
2022/12/23 02:40:13;;;;;;;2.47;1.15;;;9.80;99.90;;;;;;5017725;28;20478;-39
2022/12/23 02:42:50;;;;;;;1.23;0.95;;;9.80;99.90;;;;;;5016355;28;20379;-42
2022/12/23 02:45:31;;;;;;;4.45;1.42;;;9.80;99.90;;;;;;5019369;28;20028;-38
2022/12/23 02:48:03;;;;;;;2.10;1.30;;;9.80;99.90;;;;;;5015610;28;20021;-38
2022/12/23 02:50:34;;;;;;;3.88;1.10;;;9.80;99.90;;;;;;5026488;28;20026;-39
2022/12/23 02:53:06;;;;;;;2.97;1.10;;;9.80;99.90;;;;;;5032541;28;20104;-39
2022/12/23 02:55:37;;;;;;;3.45;1.63;;;9.80;99.90;;;;;;5032447;28;20068;-38
2022/12/23 02:58:07;;;;;;;2.10;1.30;;;9.80;99.90;;;;;;5032262;28;20437;-47
2022/12/23 03:00:34;;;;;;;2.53;1.40;;;9.80;99.90;;;;;;5032430;28;20033;-43
2022/12/23 03:03:00;;;;;;;1.92;1.20;;;9.70;99.90;;;;;;5032278;28;20511;-38
2022/12/23 03:05:37;;;;;;;3.33;1.30;;;9.70;99.90;;;;;;5032191;28;20021;-38
2022/12/23 03:08:06;;;;;;;2.67;1.30;;;9.70;99.90;;;;;;5030487;28;20026;-41
2022/12/23 03:10:53;;;;;;;2.72;1.25;;;9.70;99.90;;;;;;5032389;28;20037;-38
2022/12/23 03:13:43;;;;;;;2.72;1.20;;;9.70;99.90;;;;;;5032097;28;20076;-39
2022/12/23 03:16:51;;;;;;;2.33;1.35;;;9.70;99.90;;;;;;5032138;28;20018;-39
2022/12/23 03:19:33;;;;;;;2.15;1.08;;;9.70;99.90;;;;;;5031746;28;20030;-39
2022/12/23 03:22:08;;;;;;;1.55;1.00;;;9.60;99.90;;;;;;5031903;28;20025;-38
2022/12/23 03:24:52;;;;;;;3.15;2.55;;;9.60;99.90;;;;;;5031705;28;20474;-37
2022/12/23 03:27:26;;;;;;;1.45;1.00;;;9.70;99.90;;;;;;5031849;28;20087;-38
2022/12/23 03:29:58;;;;;;;1.45;0.85;;;9.70;99.90;;;;;;5063199;28;20030;-38
2022/12/23 03:32:26;;;;;;;1.85;1.10;;;9.70;99.90;;;;;;5031700;28;20472;-38
2022/12/23 03:34:54;;;;;;;2.33;1.08;;;9.70;99.90;;;;;;5032058;28;20543;-40
2022/12/23 03:37:24;;;;;;;1.83;1.00;;;9.70;99.90;;;;;;5031558;28;20033;-38
2022/12/23 03:39:58;;;;;;;1.42;1.02;;;9.60;99.90;;;;;;5031494;28;20026;-38
2022/12/23 03:42:32;;;;;;;1.08;0.90;;;9.60;99.90;;;;;;5031519;28;20049;-37
2022/12/23 03:45:00;;;;;;;1.20;0.80;;;9.60;99.90;;;;;;5031638;28;20034;-42
2022/12/23 03:47:34;;;;;;;2.47;1.07;;;9.70;99.90;;;;;;5031473;28;20045;-39
2022/12/23 03:50:08;;;;;;;2.40;0.90;;;9.60;99.90;;;;;;5031374;28;20029;-39
2022/12/23 03:52:44;;;;;;;1.35;0.90;;;9.60;99.90;;;;;;5031370;28;20551;-37
2022/12/23 03:55:16;;;;;;;0.93;0.80;;;9.60;99.90;;;;;;5031360;28;20111;-39
2022/12/23 03:58:43;;;;;;;1.50;0.80;;;9.60;99.90;;;;;;5031283;28;20017;-46
2022/12/23 04:01:22;;;;;;;2.92;1.17;;;9.70;99.90;;;;;;4989323;28;20049;-39
2022/12/23 04:03:54;;;;;;;;;;;9.60;99.90;;;;;;5017321;28;20510;-39
2022/12/23 04:06:20;;;;;;;3.50;1.35;;;9.60;99.90;;;;;;5031077;28;19905;-40
2022/12/23 04:08:48;;;;;;;1.50;0.90;;;9.70;99.90;;;;;;5030875;28;20042;-48
2022/12/23 04:11:14;;;;;;;2.30;0.70;;;9.70;99.90;;;;;;5031086;28;20017;-40
2022/12/23 04:13:40;;;;;;;1.23;0.88;;;9.70;99.90;;;;;;5030960;28;20491;-39
2022/12/23 04:16:06;;;;;;;1.55;0.80;;;9.70;99.90;;;;;;5031155;28;20043;-39
2022/12/23 04:18:32;;;;;;;1.00;0.80;;;9.70;99.90;;;;;;5030824;28;20473;-41
2022/12/23 04:20:57;;;;;;;1.65;0.93;;;9.70;99.90;;;;;;5030851;28;20083;-42
2022/12/23 04:23:23;;;;;;;3.67;0.88;;;9.60;99.90;;;;;;5030687;28;20483;-47
2022/12/23 04:25:49;;;;;;;1.20;0.95;;;9.60;99.90;;;;;;5031216;28;20037;-44
2022/12/23 04:28:14;;;;;;;1.42;1.08;;;9.60;99.90;;;;;;5030761;28;20392;-43
2022/12/23 04:30:40;;;;;;;1.42;1.00;;;9.60;99.90;;;;;;5031094;28;20037;-40
2022/12/23 04:33:06;;;;;;;1.67;1.10;;;9.60;99.90;;;;;;5030707;28;20029;-39
2022/12/23 04:35:31;;;;;;;2.67;1.08;;;9.60;99.90;;;;;;5030807;28;20111;-47
2022/12/23 04:37:57;;;;;;;2.33;1.15;;;9.60;99.90;;;;;;5030662;28;20022;-48
2022/12/23 04:40:23;;;;;;;3.03;1.10;;;9.60;99.90;;;;;;5028903;28;20419;-42
2022/12/23 04:42:48;;;;;;;3.22;1.08;;;9.60;99.90;;;;;;5030607;28;20037;-39
2022/12/23 04:45:14;;;;;;;3.92;1.35;;;9.60;99.90;;;;;;5030763;28;20535;-48
2022/12/23 04:47:40;;;;;;;3.33;1.30;;;9.60;99.90;;;;;;5030596;28;20036;-50
2022/12/23 04:50:06;;;;;;;3.60;1.05;;;9.60;99.90;;;;;;5030495;28;20017;-42
2022/12/23 04:52:32;;;;;;;9.25;1.63;;;9.50;99.90;;;;;;5030336;28;20427;-39
2022/12/23 04:54:57;;;;;;;3.92;1.15;;;9.50;99.90;;;;;;5030338;28;20026;-40
2022/12/23 04:57:23;;;;;;;3.42;1.20;;;9.50;99.90;;;;;;5030414;28;20025;-38
2022/12/23 04:59:48;;;;;;;3.33;1.00;;;9.50;99.90;;;;;;5030594;28;20022;-38
2022/12/23 05:02:14;;;;;;;6.28;1.60;;;9.40;99.90;;;;;;5030416;28;20064;-46
2022/12/23 05:04:40;;;;;;;10.05;1.83;;;9.40;99.90;;;;;;5030244;28;20021;-44
2022/12/23 05:07:06;;;;;;;7.70;1.80;;;9.40;99.90;;;;;;5029601;28;20029;-45
2022/12/23 05:09:31;;;;;;;6.30;1.75;;;9.40;99.90;;;;;;5028453;28;20132;-45
2022/12/23 05:11:57;;;;;;;6.18;1.85;;;9.40;99.90;;;;;;5031328;28;20034;-39
2022/12/23 05:14:22;;;;;;;9.00;2.03;;;9.40;99.90;;;;;;5034008;28;20025;-42
2022/12/23 05:16:48;;;;;;;7.97;2.40;;;9.40;99.90;;;;;;5034387;28;20030;-49
2022/12/23 05:19:14;;;;;;;8.55;2.45;;;9.50;99.90;;;;;;5034281;28;20052;-44
2022/12/23 05:21:40;;;;;;;4.47;2.15;;;9.50;99.90;;;;;;5034246;28;20144;-39
2022/12/23 05:24:06;;;;;;;3.83;2.25;;;9.40;99.90;;;;;;5034307;28;20100;-38
2022/12/23 05:26:31;;;;;;;8.13;2.10;;;9.40;99.90;;;;;;5034068;28;20029;-48
2022/12/23 05:28:57;;;;;;;4.57;1.80;;;9.40;99.90;;;;;;5034109;28;20029;-39
2022/12/23 05:31:22;;;;;;;7.32;2.08;;;9.40;99.90;;;;;;5033961;28;20025;-41
2022/12/23 05:33:48;;;;;;;6.22;1.92;;;9.40;99.90;;;;;;5032831;28;20022;-38
2022/12/23 05:36:14;;;;;;;7.88;1.92;;;9.40;99.90;;;;;;5033933;28;20072;-47
2022/12/23 05:38:40;;;;;;;6.15;2.20;;;9.40;99.90;;;;;;5034270;28;20024;-46
2022/12/23 05:41:06;;;;;;;9.63;2.25;;;9.40;99.90;;;;;;5033896;28;20575;-43
2022/12/23 05:43:32;;;;;;;8.65;2.45;;;9.40;99.90;;;;;;5032595;28;20064;-38
2022/12/23 05:45:57;;;;;;;8.75;2.45;;;9.40;99.90;;;;;;5034012;28;20418;-41
2022/12/23 05:48:23;;;;;;;5.00;2.38;;;9.40;99.90;;;;;;5033594;28;20057;-40
2022/12/23 05:50:50;;;;;;;8.32;2.47;;;9.50;99.90;;;;;;5033803;28;20085;-48
2022/12/23 05:53:17;;;;;;;8.82;2.35;;;9.50;99.90;;;;;;5033907;28;20068;-41
2022/12/23 05:55:42;;;;;;;5.45;2.17;;;9.50;99.90;;;;;;5033966;28;20152;-47
2022/12/23 05:58:08;;;;;;;5.90;1.92;;;9.50;99.90;;;;;;5033685;28;20491;-44
2022/12/23 06:00:34;;;;;;;5.88;1.90;;;9.50;99.90;;;;;;5032307;28;20063;-44
2022/12/23 06:02:59;;;;;;;13.10;2.88;;;9.50;99.90;;;;;;5033501;28;20029;-39
2022/12/23 06:05:25;;;;;;;5.75;2.60;;;9.50;99.90;;;;;;5033772;28;20044;-51
2022/12/23 06:07:51;;;;;;;7.10;2.10;;;9.50;99.90;;;;;;5033642;28;20033;-40
2022/12/23 06:10:16;;;;;;;5.97;2.10;;;9.50;99.90;;;;;;5033350;28;20136;-41
2022/12/23 06:12:42;;;;;;;6.15;1.67;;;9.50;99.90;;;;;;5032074;28;20021;-39
2022/12/23 06:15:08;;;;;;;9.38;2.70;;;9.50;99.90;;;;;;5033432;28;20083;-41
2022/12/23 06:17:34;;;;;;;5.45;2.08;;;9.50;99.90;;;;;;5033231;28;20021;-40
2022/12/23 06:19:59;;;;;;;6.03;2.30;;;9.50;99.90;;;;;;5033341;28;20018;-44
2022/12/23 06:22:25;;;;;;;9.43;2.53;;;9.50;99.90;;;;;;5032546;28;20427;-48
2022/12/23 06:24:51;;;;;;;6.90;2.58;;;9.40;99.90;;;;;;5032693;28;20492;-39
2022/12/23 06:27:18;;;;;;;6.88;2.30;;;9.40;99.90;;;;;;5031692;28;20064;-39
2022/12/23 06:29:43;;;;;;;9.10;2.78;;;9.40;99.90;;;;;;5033174;28;20022;-45
2022/12/23 06:32:09;;;;;;;9.05;3.05;;;9.40;99.90;;;;;;5032926;28;20390;-38
2022/12/23 06:34:35;;;;;;;9.80;2.67;;;9.40;99.90;;;;;;5064898;28;20041;-38
2022/12/23 06:37:00;;;;;;;10.95;3.22;;;9.30;99.90;;;;;;5032989;28;20017;-44
2022/12/23 06:39:27;;;;;;;9.07;2.88;;;9.40;99.90;;;;;;5032674;28;20508;-38
2022/12/23 06:41:52;;;;;;;6.22;2.90;;;9.30;99.90;;;;;;5032808;28;20493;-43
2022/12/23 06:44:18;;;;;;;8.40;3.00;;;9.30;99.90;;;;;;5032647;28;20033;-38
2022/12/23 06:46:43;;;;;;;8.07;3.42;;;9.30;99.90;;;;;;5032631;28;20032;-39
2022/12/23 06:49:09;;;;;;;7.88;3.10;;;9.30;99.90;;;;;;5032698;28;20057;-38
2022/12/23 06:51:35;;;;;;;6.90;3.13;;;9.30;99.90;;;;;;5032586;28;20447;-39
2022/12/23 06:54:01;;;;;;;9.20;3.47;;;9.30;99.90;;;;;;5032679;28;20093;-39
2022/12/23 06:56:26;;;;;;;9.40;3.53;;;9.30;99.90;;;;;;5032584;28;20419;-40
2022/12/23 06:58:52;;;;;;;7.75;3.53;;;9.30;99.90;;;;;;5032487;28;20027;-42
2022/12/23 07:01:18;;;;;;;6.93;2.85;;;9.30;99.90;;;;;;5032229;28;20033;-45
2022/12/23 07:03:44;;;;;;;8.05;3.00;;;9.30;99.90;;;;;;5032326;28;20056;-46
2022/12/23 07:06:10;;;;;;;9.57;3.42;;;9.30;99.90;;;;;;5032393;28;20373;-44
2022/12/23 07:08:36;;;;;;;8.63;3.58;;;9.30;99.90;;;;;;5064119;28;20389;-42
2022/12/23 07:11:02;;;;;;;11.18;3.80;;;9.30;99.90;;;;;;5032487;28;20025;-39
2022/12/23 07:13:29;;;;;;;8.90;4.00;;;9.30;99.90;;;;;;5032255;28;20532;-39
2022/12/23 07:15:55;;;;;;;8.82;3.97;;;9.30;99.90;;;;;;5032017;28;20539;-39
2022/12/23 07:18:22;;;;;;;5.43;3.60;;;9.20;99.90;;;;;;5032136;28;20025;-39
2022/12/23 07:20:48;;;;;;;10.40;4.15;;;9.20;99.90;;;;;;5032069;28;20021;-45
2022/12/23 07:23:14;;;;;;;10.43;4.20;;;9.20;99.90;;;;;;5032017;28;20021;-46
2022/12/23 07:25:39;;;;;;;10.13;3.88;;;9.30;99.90;;;;;;5031916;28;20017;-40
2022/12/23 07:28:05;;;;;;;12.68;3.92;;;9.30;99.90;;;;;;5032025;28;20639;-40
2022/12/23 07:30:31;;;;;;;8.23;3.65;;;9.30;99.90;;;;;;5031899;28;20025;-44
2022/12/23 07:32:56;;;;;;;9.07;4.07;;;9.20;99.90;;;;;;5031628;28;20040;-47
2022/12/23 07:35:22;;;;;;;11.20;3.97;;;9.20;99.90;;;;;;5031505;28;20055;-39
2022/12/23 07:37:52;;;;;;;10.90;3.53;;;9.20;99.90;;;;;;5031674;28;20021;-47
2022/12/23 07:40:18;;;;;;;12.93;3.50;;;9.30;99.90;;;;;;5031869;28;20053;-40
2022/12/23 07:42:43;;;;;;;10.95;4.03;;;9.30;99.90;;;;;;5031560;28;20083;-51
2022/12/23 07:45:09;;;;;;;11.30;3.70;;;9.40;99.90;;;;;;5031561;28;20075;-39
2022/12/23 07:47:35;;;;;;;9.73;4.00;;;9.30;99.90;;;;;;5031527;28;20021;-43
2022/12/23 07:50:00;;;;;;;11.95;4.13;;;9.40;99.90;;;;;;5031118;28;20032;-43
2022/12/23 07:52:27;;;;;;;10.82;3.65;;;9.40;99.90;;;;;;5023759;28;20061;-45
2022/12/23 07:54:53;;;;;;;11.45;3.40;;;9.40;99.90;;;;;;5015542;28;20023;-44
2022/12/23 07:57:18;;;;;;;6.57;3.38;;;9.40;99.90;;;;;;5014249;28;20477;-40
2022/12/23 07:59:44;;;;;;;6.47;2.97;;;9.40;99.90;;;;;;5031320;28;20036;-47
2022/12/23 08:02:10;;;;;;;7.95;2.78;;;9.40;99.90;;;;;;5032100;28;20037;-44
2022/12/23 08:04:35;;;;;;;7.03;2.85;;;9.40;99.90;;;;;;5021628;28;20026;-42
2022/12/23 08:07:01;;;;;;;7.18;2.75;;;9.40;99.90;;;;;;5013703;28;20065;-40
2022/12/23 08:09:26;;;;;;;6.63;2.78;;;9.40;99.90;;;;;;5012372;28;20076;-43
2022/12/23 08:11:52;;;;;;;8.23;2.63;;;9.50;99.90;;;;;;5014408;28;20385;-49
2022/12/23 08:14:19;;;;;;;8.77;3.08;;;9.50;99.90;;;;;;5012476;28;20604;-46
2022/12/23 08:16:46;;;;;;;5.30;3.00;;;9.50;99.90;;;;;;5012732;28;20038;-42
2022/12/23 08:19:12;;;;;;;10.43;2.88;;;9.50;99.90;;;;;;5013533;28;20032;-40
2022/12/23 08:21:37;;;;;;;7.47;2.50;;;9.60;99.90;;;;;;5022293;28;20029;-49
2022/12/23 08:24:03;;;;;;;7.05;2.35;;;9.60;99.90;;;;;;5016354;28;20025;-40
2022/12/23 08:26:29;;;;;;;5.45;2.05;;;9.60;99.90;;;;;;5029714;28;20031;-43
2022/12/23 08:28:55;;;;;;;6.63;2.58;;;9.60;99.90;;;;;;5029030;28;20013;-44
2022/12/23 08:31:23;;;;;;;5.90;2.00;;;9.60;99.90;;;;;;5028797;28;20108;-45
2022/12/23 08:33:51;;;;;;;5.85;2.15;;;9.60;99.90;;;;;;5030107;28;20017;-46
2022/12/23 08:36:27;;;;;;;4.53;1.90;;;9.70;99.90;;;;;;5027661;28;20033;-50
2022/12/23 08:38:55;;;;;;;4.68;1.25;;;9.70;99.90;;;;;;5027869;28;20025;-45
2022/12/23 08:41:24;;;;;;;3.20;1.30;;;9.80;99.90;;;;;;5025502;28;20026;-47
2022/12/23 08:43:50;;;;;;;1.60;0.90;;;9.80;99.90;;;;;;5028807;28;20030;-42
2022/12/23 08:46:16;;;;;;;2.50;0.82;;;9.80;99.90;;;;;;5025668;28;20034;-41
2022/12/23 08:48:42;;;;;;;1.75;0.63;;;9.90;99.90;;;;;;5029357;28;20078;-39
2022/12/23 08:51:10;;;;;;;1.35;0.50;;;9.90;99.90;;;;;;5030578;28;20033;-43
2022/12/23 08:53:37;;;;;;;0.98;0.60;;;10.00;99.90;;;;;;5026541;28;20021;-40
2022/12/23 08:56:05;;;;;;;0.40;0.40;;;10.10;99.90;;;;;;5013125;28;20030;-39
2022/12/23 08:58:34;;;;;;;0.90;0.50;;;10.20;99.90;;;;;;5015620;28;20116;-40
2022/12/23 09:01:03;;;;;;;0.90;0.45;;;10.30;99.90;;;;;;5028422;28;20108;-40
2022/12/23 09:03:29;;;;;;;0.55;0.50;;;10.30;99.90;;;;;;5028134;28;20044;-40
2022/12/23 09:05:55;;;;;;;2.08;0.50;;;10.30;99.90;;;;;;5020480;28;20026;-40
2022/12/23 09:08:20;;;;;;;1.27;0.73;;;10.40;99.90;;;;;;5014694;28;20080;-42
2022/12/23 09:10:46;;;;;;;1.15;0.65;;;10.40;99.90;;;;;;5026813;28;20018;-40
2022/12/23 09:13:12;;;;;;;1.77;0.80;;;10.60;99.90;;;;;;5029590;28;20041;-41
2022/12/23 09:15:44;;;;;;;1.30;0.90;;;10.60;99.90;;;;;;5026792;28;20443;-51
2022/12/23 09:18:10;;;;;;;1.52;0.90;;;10.70;99.90;;;;;;5017587;28;20041;-40
2022/12/23 09:20:37;;;;;;;2.70;1.02;;;10.90;99.90;;;;;;5020644;28;20036;-40
2022/12/23 09:23:03;;;;;;;3.92;1.02;;;10.90;99.90;;;;;;5016282;28;20504;-40
2022/12/23 09:25:30;;;;;;;7.95;1.10;;;11.20;99.90;;;;;;5021915;28;20531;-42
2022/12/23 09:27:55;;;;;;;5.70;1.23;;;11.50;99.90;;;;;;5011866;28;20485;-44
2022/12/23 09:30:21;;;;;;;4.95;1.40;;;11.70;99.90;;;;;;5025466;28;20044;-47
2022/12/23 09:32:47;;;;;;;4.53;1.15;;;11.90;99.90;;;;;;5022090;28;20026;-42
2022/12/23 09:35:12;;;;;;;4.63;0.80;;;12.10;99.90;;;;;;5026022;28;20104;-40
2022/12/23 09:37:38;;;;;;;6.30;1.38;;;12.20;99.90;;;;;;5023476;28;20021;-42
2022/12/23 09:40:04;;;;;;;9.15;1.20;;;12.20;99.90;;;;;;5024121;28;20018;-40
2022/12/23 09:42:54;;;;;;;5.45;1.30;;;12.30;99.90;;;;;;5026184;28;20039;-43
2022/12/23 09:45:41;;;;;;;8.90;1.88;;;12.30;99.90;;;;;;5024677;28;20057;-44
2022/12/23 09:48:16;;;;;;;13.30;1.92;;;12.40;99.90;;;;;;5025982;28;20029;-40
2022/12/23 09:50:44;;;;;;;14.95;2.35;;;12.40;99.90;;;;;;5030165;28;20494;-44
2022/12/23 09:53:42;;;;;;;20.42;2.80;;;12.40;99.90;;;;;;5030118;28;20024;-40
2022/12/23 09:56:26;;;;;;;25.77;3.67;;;12.40;99.90;;;;;;5027905;28;20112;-42
2022/12/23 09:59:07;;;;;;;16.48;3.08;;;12.40;99.90;;;;;;5021442;28;20022;-44
2022/12/23 10:01:57;;;;;;;26.50;3.75;;;12.40;99.90;;;;;;5018700;28;20041;-44
2022/12/23 10:04:45;;;;;;;38.88;6.35;;;12.40;99.90;;;;;;5030537;28;20045;-46
2022/12/23 10:07:17;;;;;;;31.20;4.15;;;12.40;99.90;;;;;;5028286;28;20076;-41
2022/12/23 10:09:47;;;;;;;29.25;3.83;;;12.40;99.90;;;;;;5021502;28;20147;-40
2022/12/23 10:12:21;;;;;;;23.42;3.25;;;12.40;99.90;;;;;;5030165;28;20590;-43
2022/12/23 10:14:49;;;;;;;32.72;4.05;;;12.40;99.90;;;;;;5026539;28;20030;-41
2022/12/23 10:17:40;;;;;;;23.13;3.95;;;12.30;99.90;;;;;;5024200;28;20033;-40
2022/12/23 10:20:13;;;;;;;27.00;3.33;;;12.40;99.90;;;;;;5017490;28;20038;-44
2022/12/23 10:22:42;;;;;;;32.25;4.60;;;12.40;99.90;;;;;;5028267;28;20389;-51
2022/12/23 10:25:21;;;;;;;29.65;4.25;;;12.40;99.90;;;;;;5022234;28;20022;-48
2022/12/23 10:27:47;;;;;;;27.00;3.63;;;12.40;99.90;;;;;;5016950;28;20480;-42
2022/12/23 10:30:19;;;;;;;29.10;4.18;;;12.40;99.90;;;;;;5025846;28;20044;-41
2022/12/23 10:32:58;;;;;;;18.00;2.92;;;12.40;99.90;;;;;;5027684;28;20485;-40
2022/12/23 10:35:49;;;;;;;14.35;2.25;;;12.40;99.90;;;;;;5030387;28;20030;-43
2022/12/23 10:38:30;;;;;;;19.38;2.95;;;12.30;99.90;;;;;;5029974;28;20555;-52
2022/12/23 10:41:19;;;;;;;11.80;2.13;;;12.40;99.90;;;;;;5024463;28;20030;-43
2022/12/23 10:43:59;;;;;;;19.52;2.45;;;12.40;99.90;;;;;;5026244;28;20128;-41
2022/12/23 10:46:59;;;;;;;16.05;2.42;;;12.40;99.90;;;;;;5031816;28;20076;-44
2022/12/23 10:49:36;;;;;;;20.38;2.92;;;12.30;99.90;;;;;;5032562;28;20052;-45
2022/12/23 10:52:14;;;;;;;26.73;3.67;;;12.30;99.90;;;;;;5032361;28;20033;-44
2022/12/23 10:54:41;;;;;;;22.08;2.85;;;12.30;99.90;;;;;;5032008;28;20018;-51
2022/12/23 10:57:07;;;;;;;22.83;3.30;;;12.30;99.90;;;;;;5032093;28;20017;-46
2022/12/23 10:59:34;;;;;;;24.33;3.53;;;12.30;99.90;;;;;;5031978;28;20075;-45
2022/12/23 11:02:12;;;;;;;20.08;3.15;;;12.30;99.90;;;;;;5031400;28;20369;-45
2022/12/23 11:04:44;;;;;;;15.30;2.80;;;12.30;99.90;;;;;;5026242;28;20130;-42
2022/12/23 11:07:13;;;;;;;19.70;2.28;;;12.30;99.90;;;;;;5011467;28;20529;-44
2022/12/23 11:09:46;;;;;;;19.55;2.63;;;12.30;99.90;;;;;;5027456;28;20050;-48
2022/12/23 11:12:12;;;;;;;15.38;2.30;;;12.30;99.90;;;;;;5023762;28;20202;-49
2022/12/23 11:14:56;;;;;;;19.75;2.60;;;12.30;99.90;;;;;;5020781;28;20498;-40
2022/12/23 11:17:28;;;;;;;18.63;2.88;;;12.30;99.90;;;;;;5024502;28;20025;-41
2022/12/23 11:20:10;;;;;;;24.50;3.70;;;12.30;99.90;;;;;;5028647;28;20021;-44
2022/12/23 11:23:01;;;;;;;22.33;4.00;;;12.20;99.90;;;;;;5022318;28;20041;-40
2022/12/23 11:25:35;;;;;;;24.42;2.95;;;12.30;99.90;;;;;;5028623;28;20056;-40
2022/12/23 11:28:06;;;;;;;17.17;3.80;;;12.40;99.90;;;;;;5030335;28;20475;-42
2022/12/23 11:30:54;;;;;;;19.30;2.92;;;12.40;99.90;;;;;;5031533;28;20028;-45
2022/12/23 11:33:28;;;;;;;23.65;3.17;;;12.50;99.90;;;;;;5028550;28;20030;-41
2022/12/23 11:36:13;;;;;;;14.73;2.92;;;12.70;99.90;;;;;;5024607;28;20065;-41
2022/12/23 11:38:58;;;;;;;14.98;2.03;;;13.40;99.90;;;;;;5026739;28;20501;-41
2022/12/23 11:41:32;;;;;;;13.88;2.35;;;14.00;99.90;;;;;;5025909;28;20036;-41
2022/12/23 11:44:05;;;;;;;13.35;2.40;;;13.80;99.90;;;;;;5027948;28;20029;-41
2022/12/23 11:46:33;;;;;;;15.15;2.35;;;13.50;99.90;;;;;;5030895;28;20056;-41
2022/12/23 11:49:22;;;;;;;14.75;2.08;;;13.20;99.90;;;;;;5031075;28;20120;-42
2022/12/23 11:52:04;;;;;;;10.38;1.67;;;13.10;99.90;;;;;;5018409;28;20464;-44
2022/12/23 11:54:32;;;;;;;13.70;2.65;;;13.00;99.90;;;;;;5027035;28;20490;-40
2022/12/23 11:57:00;;;;;;;15.65;2.47;;;13.00;99.90;;;;;;5027713;28;20092;-41
2022/12/23 11:59:37;;;;;;;19.30;2.30;;;13.00;99.90;;;;;;5029327;28;20025;-39
2022/12/23 12:02:33;;;;;;;12.85;2.10;;;13.10;99.90;;;;;;5027003;28;20072;-45
2022/12/23 12:05:14;;;;;;;18.30;2.85;;;13.10;99.90;;;;;;5028590;28;20024;-41
2022/12/23 12:07:42;;;;;;;18.65;3.38;;;13.10;99.90;;;;;;5030503;28;20036;-44
2022/12/23 12:10:17;;;;;;;19.80;2.95;;;13.00;99.90;;;;;;5027943;28;20045;-40
2022/12/23 12:12:42;;;;;;;25.98;3.78;;;13.00;99.90;;;;;;5028419;28;20036;-40
2022/12/23 12:15:40;;;;;;;16.50;3.63;;;12.90;99.90;;;;;;5028798;28;20017;-40
2022/12/23 12:18:10;;;;;;;31.52;5.15;;;12.80;99.90;;;;;;5028067;28;20037;-46
2022/12/23 12:20:43;;;;;;;31.02;5.30;;;12.70;99.90;;;;;;5028332;28;20021;-39
2022/12/23 12:23:21;;;;;;;36.22;5.80;;;12.60;99.90;;;;;;5025661;28;20037;-40
2022/12/23 12:25:55;;;;;;;35.33;6.05;;;12.50;99.90;;;;;;5029259;28;20013;-45
2022/12/23 12:28:45;;;;;;;38.97;4.85;;;12.50;99.90;;;;;;5027219;28;20083;-40
2022/12/23 12:31:23;;;;;;;40.40;6.60;;;12.40;99.90;;;;;;5030122;28;20108;-41
2022/12/23 12:34:15;;;;;;;45.63;6.53;;;12.40;99.90;;;;;;5030267;28;20121;-44
2022/12/23 12:37:25;;;;;;;33.08;5.45;;;12.40;99.90;;;;;;5029060;28;20053;-44
2022/12/23 12:40:02;;;;;;;35.13;5.72;;;12.50;99.90;;;;;;5006104;28;20085;-41
2022/12/23 12:42:42;;;;;;;43.80;5.85;;;12.50;99.90;;;;;;5006826;28;20064;-41
2022/12/23 12:45:19;;;;;;;33.35;5.10;;;12.50;99.90;;;;;;5019759;28;20104;-40
2022/12/23 12:48:05;;;;;;;44.13;6.78;;;12.50;99.90;;;;;;5026691;28;20095;-48
2022/12/23 12:50:47;;;;;;;33.67;5.47;;;12.50;99.90;;;;;;5028509;28;20118;-44
2022/12/23 12:53:21;;;;;;;40.88;5.35;;;12.60;99.90;;;;;;5012163;28;20044;-40
2022/12/23 12:55:59;;;;;;;43.22;5.75;;;12.60;99.90;;;;;;5027351;28;20449;-41
2022/12/23 12:58:24;;;;;;;45.90;7.05;;;12.80;99.90;;;;;;5029144;28;20040;-42
2022/12/23 13:01:16;;;;;;;37.72;6.32;;;12.80;99.90;;;;;;5055600;28;20034;-47
2022/12/23 13:04:01;;;;;;;38.35;5.53;;;12.80;99.90;;;;;;5018717;28;20049;-45
2022/12/23 13:06:54;;;;;;;44.63;5.55;;;12.70;99.90;;;;;;5028654;28;20076;-39
2022/12/23 13:09:58;;;;;;;37.60;5.93;;;12.70;99.90;;;;;;5026911;28;20042;-43
2022/12/23 13:12:24;;;;;;;44.00;6.80;;;12.70;99.90;;;;;;5028654;28;20026;-42
2022/12/23 13:15:03;;;;;;;37.90;6.28;;;12.70;99.90;;;;;;5028473;28;20025;-41
2022/12/23 13:18:06;;;;;;;34.80;5.20;;;12.70;99.90;;;;;;5024972;28;20022;-44
2022/12/23 13:20:58;;;;;;;47.85;5.97;;;12.70;99.90;;;;;;5021361;28;20091;-46
2022/12/23 13:23:35;;;;;;;39.95;5.38;;;12.80;99.90;;;;;;5026102;28;20040;-44
2022/12/23 13:26:24;;;;;;;34.58;5.30;;;13.30;99.90;;;;;;5023677;28;20577;-42
2022/12/23 13:29:08;;;;;;;37.65;5.05;;;13.60;99.90;;;;;;5025243;28;20161;-43
2022/12/23 13:31:58;;;;;;;36.08;5.53;;;14.00;99.90;;;;;;5025164;28;20056;-40
2022/12/23 13:34:42;;;;;;;30.85;5.10;;;15.10;99.90;;;;;;5026751;28;20018;-39